Time;durP1;ratioP1;P1;durP2;ratioP2;P2;SDS_P1;SDS_P2;PMS_P1;PMS_P2;Temp;Humidity;BMP_temperature;BMP_pressure;BME280_temperature;BME280_humidity;BME280_pressure;Samples;Min_cycle;Max_cycle;Signal;HPM_P1;HPM_P2
2021/10/18 04:00:22;;;;;;;8.05;6.50;;;10.90;99.90;;;;;;5960934;23;20188;-70
2021/10/18 04:02:48;;;;;;;7.85;7.25;;;10.90;99.90;;;;;;4941736;28;20588;-73
2021/10/18 04:05:15;;;;;;;7.78;7.25;;;10.90;99.90;;;;;;4938251;29;20210;-73
2021/10/18 04:07:46;;;;;;;7.72;7.00;;;10.90;99.90;;;;;;4937857;29;20214;-73
2021/10/18 04:10:13;;;;;;;8.18;7.38;;;10.90;99.90;;;;;;4937054;29;20201;-72
2021/10/18 04:12:40;;;;;;;7.13;6.53;;;10.90;99.90;;;;;;4936708;29;20665;-71
2021/10/18 04:15:08;;;;;;;8.25;6.63;;;10.90;99.90;;;;;;4937353;29;20753;-72
2021/10/18 04:17:36;;;;;;;9.63;7.30;;;10.90;99.90;;;;;;4936492;29;20742;-72
2021/10/18 04:20:03;;;;;;;6.15;5.75;;;10.90;99.90;;;;;;4937312;29;20217;-72
2021/10/18 04:22:30;;;;;;;8.18;7.15;;;10.90;99.90;;;;;;4937130;29;20233;-72
2021/10/18 04:24:56;;;;;;;7.57;6.88;;;10.90;99.90;;;;;;4936753;29;20213;-72
2021/10/18 04:27:23;;;;;;;7.35;6.57;;;10.90;99.90;;;;;;4936664;29;20210;-72
2021/10/18 04:29:50;;;;;;;7.50;6.82;;;10.90;99.90;;;;;;4936970;29;20210;-72
2021/10/18 04:32:16;;;;;;;7.43;6.80;;;10.90;99.90;;;;;;4936866;29;20293;-72
2021/10/18 04:34:44;;;;;;;8.05;7.38;;;10.90;99.90;;;;;;4937253;29;20265;-72
2021/10/18 04:37:11;;;;;;;7.38;6.63;;;10.90;99.90;;;;;;4936984;29;20695;-72
2021/10/18 04:39:38;;;;;;;6.90;6.22;;;10.90;99.90;;;;;;4936544;29;20281;-72
2021/10/18 04:42:05;;;;;;;6.63;5.72;;;10.90;99.90;;;;;;4936192;29;20229;-73
2021/10/18 04:44:32;;;;;;;9.10;7.03;;;10.80;99.90;;;;;;4937111;29;20209;-73
2021/10/18 04:46:58;;;;;;;7.82;7.03;;;10.90;99.90;;;;;;4936702;29;20651;-73
2021/10/18 04:49:25;;;;;;;8.65;5.80;;;10.80;99.90;;;;;;4936714;29;20269;-73
2021/10/18 04:51:53;;;;;;;8.35;6.95;;;10.80;99.90;;;;;;4936524;29;20591;-73
2021/10/18 04:54:19;;;;;;;7.78;7.07;;;10.80;99.90;;;;;;4937005;29;20214;-73
2021/10/18 04:56:46;;;;;;;7.72;7.13;;;10.80;99.90;;;;;;4936219;29;20225;-73
2021/10/18 04:59:13;;;;;;;7.85;6.90;;;10.70;99.90;;;;;;4936468;29;20702;-73
2021/10/18 05:01:39;;;;;;;7.28;6.68;;;10.70;99.90;;;;;;4937131;29;20770;-73
2021/10/18 05:04:06;;;;;;;6.47;5.88;;;10.70;99.90;;;;;;4936467;29;20706;-73
2021/10/18 05:06:33;;;;;;;15.48;7.40;;;10.70;99.90;;;;;;4936829;29;20667;-73
2021/10/18 05:09:01;;;;;;;7.10;6.50;;;10.60;99.90;;;;;;4936335;29;20269;-73
2021/10/18 05:11:27;;;;;;;10.30;9.30;;;10.60;99.90;;;;;;4936472;29;20240;-73
2021/10/18 05:13:54;;;;;;;7.70;6.85;;;10.70;99.90;;;;;;4937463;29;20230;-73
2021/10/18 05:16:21;;;;;;;7.65;7.00;;;10.60;99.90;;;;;;4938010;29;20210;-73
2021/10/18 05:18:47;;;;;;;7.20;6.57;;;10.60;99.90;;;;;;4941569;29;20214;-74
2021/10/18 05:21:14;;;;;;;7.45;6.85;;;10.60;99.90;;;;;;4943648;29;20364;-73
2021/10/18 05:23:40;;;;;;;10.57;7.70;;;10.60;99.90;;;;;;4943603;29;20682;-73
2021/10/18 05:26:08;;;;;;;7.30;6.68;;;10.60;99.90;;;;;;4938410;29;20356;-73
2021/10/18 05:28:35;;;;;;;7.38;6.60;;;10.60;99.90;;;;;;4935510;29;20214;-73
2021/10/18 05:31:02;;;;;;;7.20;6.70;;;10.60;99.90;;;;;;4942246;29;20306;-73
2021/10/18 05:33:28;;;;;;;7.80;7.10;;;10.60;99.90;;;;;;4936885;29;20301;-73
2021/10/18 05:35:55;;;;;;;7.05;6.45;;;10.60;99.90;;;;;;4936270;29;20753;-73
2021/10/18 05:38:22;;;;;;;9.15;8.35;;;10.60;99.90;;;;;;4938531;29;20683;-73
2021/10/18 05:40:49;;;;;;;7.20;6.70;;;10.60;99.90;;;;;;4937071;29;20229;-73
2021/10/18 05:43:17;;;;;;;8.38;7.43;;;10.60;99.90;;;;;;4936076;29;20236;-73
2021/10/18 05:45:44;;;;;;;7.60;6.90;;;10.50;99.90;;;;;;4936714;29;20654;-74
2021/10/18 05:48:11;;;;;;;8.98;6.47;;;10.50;99.90;;;;;;4936316;29;20214;-74
2021/10/18 05:50:42;;;;;;;7.43;6.60;;;10.50;99.90;;;;;;4935563;29;20272;-74
2021/10/18 05:53:09;;;;;;;8.02;6.80;;;10.50;99.90;;;;;;4936448;29;20237;-74
2021/10/18 05:55:36;;;;;;;7.82;7.00;;;10.50;99.90;;;;;;4936136;29;20256;-74
2021/10/18 05:58:05;;;;;;;7.47;6.35;;;10.40;99.90;;;;;;4942118;29;20269;-74
2021/10/18 06:00:36;;;;;;;7.07;6.13;;;10.40;99.90;;;;;;4950210;29;20235;-74
2021/10/18 06:03:03;;;;;;;7.18;6.65;;;10.40;99.90;;;;;;4942019;29;20210;-74
2021/10/18 06:05:30;;;;;;;6.13;5.63;;;10.40;99.90;;;;;;4948906;29;20305;-74
2021/10/18 06:08:05;;;;;;;6.72;6.20;;;10.30;99.90;;;;;;4942191;29;20588;-74
2021/10/18 06:10:32;;;;;;;7.15;6.57;;;10.30;99.90;;;;;;4938094;29;20267;-74
2021/10/18 06:12:58;;;;;;;7.50;6.80;;;10.30;99.90;;;;;;4936688;29;20225;-74
2021/10/18 06:15:25;;;;;;;7.53;6.80;;;10.40;99.90;;;;;;4937722;29;20239;-72
2021/10/18 06:17:53;;;;;;;8.20;7.20;;;10.40;99.90;;;;;;4938390;29;20261;-72
2021/10/18 06:20:20;;;;;;;7.72;7.03;;;10.50;99.90;;;;;;4940005;29;20557;-72
2021/10/18 06:22:47;;;;;;;11.25;7.80;;;10.50;99.90;;;;;;4938886;29;20296;-73
2021/10/18 06:25:14;;;;;;;7.03;6.35;;;10.60;99.90;;;;;;4935186;29;20722;-71
2021/10/18 06:27:41;;;;;;;7.80;7.20;;;10.60;99.90;;;;;;4935102;29;20210;-71
2021/10/18 06:30:08;;;;;;;7.97;7.35;;;10.70;99.90;;;;;;4935201;29;20642;-72
2021/10/18 06:32:35;;;;;;;7.57;6.78;;;10.80;99.90;;;;;;4934874;29;20230;-71
2021/10/18 06:35:03;;;;;;;6.95;6.25;;;10.80;99.90;;;;;;4935421;29;20214;-71
2021/10/18 06:37:31;;;;;;;7.55;6.78;;;10.80;99.90;;;;;;4935363;29;20213;-71
2021/10/18 06:39:58;;;;;;;7.70;6.80;;;10.90;99.90;;;;;;4934500;29;20210;-71
2021/10/18 06:42:25;;;;;;;8.30;6.20;;;10.90;99.90;;;;;;4934570;29;20245;-71
2021/10/18 06:44:51;;;;;;;6.63;6.03;;;11.00;99.90;;;;;;4935049;29;20206;-71
2021/10/18 06:47:18;;;;;;;7.68;6.47;;;11.10;99.90;;;;;;4935472;29;20237;-71
2021/10/18 06:49:45;;;;;;;6.13;5.60;;;11.10;99.90;;;;;;4935452;29;20304;-70
2021/10/18 06:52:13;;;;;;;6.40;5.95;;;11.20;99.90;;;;;;4934853;29;20293;-71
2021/10/18 06:54:41;;;;;;;6.15;5.53;;;11.30;99.90;;;;;;4934470;29;20313;-70
2021/10/18 06:57:08;;;;;;;6.00;5.50;;;11.30;99.90;;;;;;4934629;29;20301;-70
2021/10/18 06:59:34;;;;;;;6.18;5.57;;;11.30;99.90;;;;;;4934834;29;20269;-70
2021/10/18 07:02:01;;;;;;;6.60;6.10;;;11.40;99.90;;;;;;4934832;29;20261;-70
2021/10/18 07:04:29;;;;;;;6.25;5.75;;;11.30;99.90;;;;;;4934912;29;20662;-70
2021/10/18 07:06:57;;;;;;;5.50;5.20;;;11.40;99.90;;;;;;4934743;29;20679;-71
2021/10/18 07:09:27;;;;;;;6.30;5.90;;;11.40;99.90;;;;;;4934643;29;20218;-71
2021/10/18 07:11:54;;;;;;;5.65;5.35;;;11.50;99.90;;;;;;4934683;29;20320;-71
2021/10/18 07:14:20;;;;;;;6.25;5.65;;;11.50;99.90;;;;;;4935355;29;20233;-71
2021/10/18 07:16:47;;;;;;;6.00;5.43;;;11.60;99.90;;;;;;4935979;29;20285;-71
2021/10/18 07:19:14;;;;;;;5.78;5.15;;;11.60;99.90;;;;;;4935643;29;20272;-71
2021/10/18 07:21:42;;;;;;;6.70;6.20;;;11.60;99.90;;;;;;4935639;29;20318;-71
2021/10/18 07:24:09;;;;;;;5.82;5.32;;;11.70;99.90;;;;;;4935404;29;20226;-71
2021/10/18 07:26:37;;;;;;;6.22;5.63;;;11.70;99.90;;;;;;4935217;29;20210;-71
2021/10/18 07:29:03;;;;;;;9.90;6.60;;;11.80;99.90;;;;;;4935318;29;20210;-71
2021/10/18 07:31:30;;;;;;;5.82;5.53;;;11.80;99.90;;;;;;4934156;29;20494;-71
2021/10/18 07:34:01;;;;;;;6.50;5.67;;;11.80;99.90;;;;;;4934966;29;20316;-70
2021/10/18 07:36:29;;;;;;;6.40;6.00;;;11.90;99.90;;;;;;4934977;29;20961;-71
2021/10/18 07:39:03;;;;;;;6.03;5.65;;;12.00;99.90;;;;;;4934695;29;20466;-71
2021/10/18 07:41:31;;;;;;;5.70;5.30;;;12.00;99.90;;;;;;4934740;29;20229;-70
2021/10/18 07:43:59;;;;;;;6.60;6.20;;;12.10;99.90;;;;;;4934892;29;20289;-70
2021/10/18 07:46:26;;;;;;;5.43;5.10;;;12.10;99.90;;;;;;4935184;29;21021;-71
2021/10/18 07:48:52;;;;;;;4.53;4.32;;;12.20;99.90;;;;;;4935469;29;20540;-70
2021/10/18 07:51:19;;;;;;;5.90;5.60;;;12.20;99.90;;;;;;4935052;29;20713;-70
2021/10/18 07:53:46;;;;;;;6.40;5.90;;;12.30;99.90;;;;;;4937386;29;20954;-70
2021/10/18 07:56:12;;;;;;;6.20;5.70;;;12.30;99.90;;;;;;4937545;29;20573;-70
2021/10/18 07:58:39;;;;;;;6.33;5.20;;;12.30;99.90;;;;;;4938211;29;20498;-70
2021/10/18 08:01:07;;;;;;;5.80;5.40;;;12.40;99.90;;;;;;4937679;29;20607;-70
2021/10/18 08:03:34;;;;;;;5.87;5.47;;;12.40;99.90;;;;;;4937676;29;20461;-71
2021/10/18 08:06:01;;;;;;;5.67;5.17;;;12.50;99.90;;;;;;4937604;29;20567;-71
2021/10/18 08:08:30;;;;;;;6.30;5.70;;;12.50;99.90;;;;;;4937452;29;20469;-72
2021/10/18 08:10:57;;;;;;;5.77;5.27;;;12.60;99.90;;;;;;4937502;29;20945;-70
2021/10/18 08:13:24;;;;;;;5.40;4.90;;;12.60;99.90;;;;;;4937458;29;20493;-70
2021/10/18 08:15:51;;;;;;;5.53;5.13;;;12.60;99.90;;;;;;4937619;29;20473;-70
2021/10/18 08:18:19;;;;;;;7.77;5.97;;;12.60;99.90;;;;;;4937893;29;20536;-71
2021/10/18 08:20:46;;;;;;;6.90;6.00;;;12.60;99.90;;;;;;4937304;29;20894;-70
2021/10/18 08:23:13;;;;;;;5.63;5.27;;;12.60;99.90;;;;;;4937689;29;20465;-70
2021/10/18 08:25:40;;;;;;;6.77;5.40;;;12.70;99.90;;;;;;4936589;29;20474;-71
2021/10/18 08:28:07;;;;;;;8.27;5.07;;;12.70;99.90;;;;;;4937641;29;20469;-70
2021/10/18 08:30:33;;;;;;;5.40;5.00;;;12.80;99.90;;;;;;4937266;29;20493;-69
2021/10/18 08:33:00;;;;;;;5.07;4.77;;;12.80;99.90;;;;;;4937232;29;20496;-70
2021/10/18 08:35:28;;;;;;;5.43;5.13;;;12.90;99.90;;;;;;4937085;29;20469;-69
2021/10/18 08:41:00;;;;;;;5.23;4.67;;;12.90;99.90;;;;;;4912595;29;20493;-71
2021/10/18 08:44:14;;;;;;;5.10;4.70;;;13.00;99.90;;;;;;4937037;29;20473;-71
2021/10/18 08:46:20;;;;;;;4.70;4.40;;;13.00;99.90;;;;;;4936860;29;20467;-71
2021/10/18 08:48:50;;;;;;;4.47;4.17;;;13.10;99.90;;;;;;4937299;29;20516;-71
2021/10/18 08:51:19;;;;;;;4.50;4.30;;;13.10;99.90;;;;;;4936889;29;21004;-70
2021/10/18 08:53:46;;;;;;;4.77;4.37;;;13.10;99.90;;;;;;4936381;29;20489;-70
2021/10/18 08:56:13;;;;;;;4.40;4.10;;;13.20;99.90;;;;;;4937916;29;20472;-71
2021/10/18 08:58:40;;;;;;;4.73;4.30;;;13.30;99.90;;;;;;4938698;29;20470;-71
2021/10/18 09:01:07;;;;;;;4.77;4.40;;;13.30;99.90;;;;;;4938803;29;20497;-71
2021/10/18 09:03:35;;;;;;;5.60;5.10;;;13.30;99.90;;;;;;4953694;29;20473;-71
2021/10/18 09:06:16;;;;;;;4.67;4.37;;;13.30;99.90;;;;;;4961874;28;20488;-71
2021/10/18 09:08:47;;;;;;;5.80;5.30;;;13.30;99.90;;;;;;4958991;29;20495;-71
2021/10/18 09:11:16;;;;;;;8.10;4.27;;;13.30;99.90;;;;;;4956026;29;20492;-71
2021/10/18 09:13:56;;;;;;;5.90;4.80;;;13.30;99.90;;;;;;4955593;29;21016;-71
2021/10/18 09:16:25;;;;;;;4.60;4.30;;;13.30;99.90;;;;;;4955931;29;20555;-71
2021/10/18 09:19:05;;;;;;;4.60;4.20;;;13.30;99.90;;;;;;4955521;29;20872;-71
2021/10/18 09:21:34;;;;;;;5.83;5.40;;;13.40;99.90;;;;;;4955808;29;20488;-70
2021/10/18 09:24:03;;;;;;;4.70;4.40;;;13.40;99.90;;;;;;4955318;29;20480;-71
2021/10/18 09:26:32;;;;;;;4.53;4.13;;;13.40;99.90;;;;;;4956123;29;20505;-71
2021/10/18 09:29:08;;;;;;;4.83;3.97;;;13.40;99.90;;;;;;4955976;29;21000;-71
2021/10/18 09:31:35;;;;;;;6.30;3.57;;;13.40;99.90;;;;;;4955188;29;21043;-70
2021/10/18 09:34:07;;;;;;;4.53;4.03;;;13.50;99.90;;;;;;4955008;29;20515;-73
2021/10/18 09:36:36;;;;;;;4.97;4.60;;;13.50;99.90;;;;;;4955401;29;20472;-73
2021/10/18 09:39:16;;;;;;;4.80;4.60;;;13.60;99.90;;;;;;4954647;29;21027;-73
2021/10/18 09:41:44;;;;;;;5.17;4.67;;;13.60;99.90;;;;;;4941571;29;20493;-73
2021/10/18 09:44:22;;;;;;;4.23;3.97;;;13.70;99.90;;;;;;4935842;29;20544;-73
2021/10/18 09:47:05;;;;;;;4.43;4.03;;;13.70;99.90;;;;;;4936392;29;20473;-74
2021/10/18 10:53:46;;;;;;;2.70;2.60;;;15.10;99.90;;;;;;4935175;29;20493;-74
2021/10/18 10:56:25;;;;;;;3.60;3.27;;;15.20;99.90;;;;;;4935049;29;20870;-74
2021/10/18 10:59:00;;;;;;;3.00;2.80;;;15.30;99.90;;;;;;4941042;29;20469;-74
2021/10/18 11:01:51;;;;;;;3.00;2.80;;;15.30;99.90;;;;;;4941325;29;20575;-74
2021/10/18 11:04:55;;;;;;;2.70;2.50;;;15.40;99.90;;;;;;4949238;29;20942;-74
2021/10/18 11:07:52;;;;;;;2.80;2.70;;;15.40;99.90;;;;;;4953935;28;21035;-74
2021/10/18 11:10:23;;;;;;;2.30;2.30;;;15.40;99.90;;;;;;4953650;28;20976;-74
2021/10/18 11:12:50;;;;;;;2.80;2.70;;;15.40;99.90;;;;;;4953350;29;20469;-74
2021/10/18 11:15:19;;;;;;;2.60;2.50;;;15.40;99.90;;;;;;4953792;29;20862;-74
2021/10/18 11:17:49;;;;;;;2.43;2.33;;;15.50;99.90;;;;;;4953651;29;20480;-74
2021/10/18 11:20:17;;;;;;;2.10;2.00;;;15.40;99.90;;;;;;4954303;29;20473;-74
2021/10/18 11:22:46;;;;;;;2.40;2.30;;;15.40;99.90;;;;;;4953654;29;20465;-74
2021/10/18 11:25:14;;;;;;;2.50;2.40;;;15.40;99.90;;;;;;4953202;29;20468;-74
2021/10/18 11:27:43;;;;;;;2.87;2.77;;;15.40;99.90;;;;;;4955373;28;21026;-74
2021/10/18 11:30:13;;;;;;;2.30;2.20;;;15.50;99.90;;;;;;4957449;29;20476;-73
2021/10/18 11:32:40;;;;;;;2.53;2.43;;;15.60;99.90;;;;;;4957702;29;20535;-74
2021/10/18 11:35:12;;;;;;;3.10;2.40;;;15.60;99.90;;;;;;4957819;29;20496;-74
2021/10/18 11:37:56;;;;;;;2.40;2.03;;;15.60;99.90;;;;;;4957476;28;20531;-73
2021/10/18 11:40:27;;;;;;;2.30;2.20;;;15.70;99.90;;;;;;4954317;29;20464;-73
2021/10/18 11:42:56;;;;;;;4.70;2.30;;;15.70;99.90;;;;;;4937561;29;20469;-74
2021/10/18 11:45:25;;;;;;;2.87;2.50;;;15.70;99.90;;;;;;4938573;29;20866;-73
2021/10/18 11:47:52;;;;;;;2.50;2.30;;;15.70;99.90;;;;;;4938335;29;20493;-74
2021/10/18 11:50:23;;;;;;;2.63;2.43;;;15.70;99.90;;;;;;4938372;29;20477;-74
2021/10/18 11:52:55;;;;;;;2.60;2.40;;;15.80;99.90;;;;;;4937900;29;20532;-74
2021/10/18 11:55:24;;;;;;;2.00;2.00;;;15.80;99.90;;;;;;4939597;29;21027;-76
2021/10/18 11:57:53;;;;;;;2.30;2.10;;;15.80;99.90;;;;;;4950910;29;20469;-73
2021/10/18 12:00:23;;;;;;;2.70;2.40;;;15.80;99.90;;;;;;4944383;29;20456;-73
2021/10/18 12:02:50;;;;;;;4.80;2.30;;;15.90;99.90;;;;;;4948721;29;20461;-72
2021/10/18 12:05:18;;;;;;;2.13;2.13;;;15.80;99.90;;;;;;4947949;29;20469;-72
2021/10/18 12:07:48;;;;;;;1.93;1.93;;;15.90;99.90;;;;;;4942387;28;20483;-72
2021/10/18 12:10:24;;;;;;;2.20;2.20;;;15.90;99.90;;;;;;4945271;29;20468;-72
2021/10/18 12:13:27;;;;;;;2.93;2.17;;;15.90;99.90;;;;;;4947268;29;20866;-73
2021/10/18 12:16:15;;;;;;;2.07;2.07;;;15.90;99.90;;;;;;4923719;29;20568;-74
2021/10/18 12:18:47;;;;;;;2.10;2.00;;;16.00;99.90;;;;;;4954649;29;20956;-74
2021/10/18 12:21:18;;;;;;;2.90;2.70;;;16.00;99.90;;;;;;4945856;29;20485;-73
2021/10/18 12:23:52;;;;;;;2.10;2.00;;;16.00;99.90;;;;;;4950739;29;20465;-73
2021/10/18 12:26:20;;;;;;;2.00;2.00;;;16.10;99.90;;;;;;4953163;29;20579;-73
2021/10/18 12:28:49;;;;;;;2.37;2.27;;;16.10;99.90;;;;;;4952163;29;20457;-73
2021/10/18 12:31:34;;;;;;;2.17;2.07;;;16.10;99.90;;;;;;4942875;29;21047;-74
2021/10/18 12:34:13;;;;;;;1.77;1.67;;;16.20;99.90;;;;;;4941153;29;20520;-73
2021/10/18 12:36:48;;;;;;;1.60;1.60;;;16.10;99.90;;;;;;4940419;29;20479;-73
2021/10/18 12:39:35;;;;;;;1.90;1.90;;;16.10;99.90;;;;;;4937301;29;20469;-74
2021/10/18 12:42:02;;;;;;;2.77;2.00;;;16.10;99.90;;;;;;4955871;29;21055;-73
2021/10/18 12:44:32;;;;;;;4.70;2.27;;;16.10;99.90;;;;;;4945460;28;20874;-73
2021/10/18 12:46:59;;;;;;;2.63;2.53;;;16.10;99.90;;;;;;4950607;29;21021;-73
2021/10/18 12:49:29;;;;;;;2.10;2.10;;;16.10;99.90;;;;;;4938747;29;20470;-73
2021/10/18 12:51:56;;;;;;;1.80;1.80;;;16.20;99.90;;;;;;4955656;29;21032;-73
2021/10/18 12:54:27;;;;;;;2.10;2.10;;;16.30;99.90;;;;;;4947288;29;20484;-73
2021/10/18 12:57:01;;;;;;;2.13;2.03;;;16.30;99.90;;;;;;4951149;29;20961;-72
2021/10/18 12:59:29;;;;;;;2.30;2.20;;;16.40;99.90;;;;;;4942971;29;21023;-72
2021/10/18 13:02:18;;;;;;;2.17;2.07;;;16.30;99.90;;;;;;4939898;29;20494;-72
2021/10/18 13:05:14;;;;;;;3.80;2.50;;;16.30;99.90;;;;;;4943715;29;20470;-72
2021/10/18 13:07:43;;;;;;;2.13;2.03;;;16.30;99.90;;;;;;4955791;29;20523;-74
2021/10/18 13:10:15;;;;;;;2.43;2.20;;;16.30;99.90;;;;;;4950782;29;20551;-74
2021/10/18 13:12:42;;;;;;;2.27;2.17;;;16.30;99.90;;;;;;4955158;29;20469;-73
2021/10/18 13:15:10;;;;;;;2.20;2.10;;;16.30;99.90;;;;;;4955431;29;21016;-74
2021/10/18 13:17:37;;;;;;;2.00;2.00;;;16.30;99.90;;;;;;4951719;29;20469;-74
2021/10/18 13:20:05;;;;;;;2.40;2.30;;;16.30;99.90;;;;;;4952738;29;20468;-74
2021/10/18 13:22:31;;;;;;;2.00;2.00;;;16.20;99.90;;;;;;4952763;29;20468;-73
2021/10/18 13:24:58;;;;;;;3.83;2.30;;;16.30;99.90;;;;;;4948525;29;20461;-74
2021/10/18 13:27:26;;;;;;;2.13;2.13;;;16.20;99.90;;;;;;4955301;29;20490;-74
2021/10/18 13:29:53;;;;;;;2.90;2.70;;;16.20;99.90;;;;;;4955473;28;20472;-73
2021/10/18 13:32:20;;;;;;;2.60;2.53;;;16.20;99.90;;;;;;4955013;29;20499;-73
2021/10/18 13:34:46;;;;;;;4.53;2.87;;;16.30;99.90;;;;;;4953649;29;20481;-74
2021/10/18 13:37:14;;;;;;;2.70;2.60;;;16.30;99.90;;;;;;4954200;29;20813;-73
2021/10/18 13:39:41;;;;;;;3.53;3.33;;;16.30;99.90;;;;;;4949995;29;20955;-73
2021/10/18 13:42:09;;;;;;;2.77;2.60;;;16.30;99.90;;;;;;4942260;29;20826;-72
2021/10/18 13:44:38;;;;;;;3.03;2.87;;;16.20;99.90;;;;;;4943095;29;20457;-74
2021/10/18 13:47:06;;;;;;;2.53;2.53;;;16.20;99.90;;;;;;4936249;29;20479;-73
2021/10/18 13:49:33;;;;;;;2.40;2.30;;;16.20;99.90;;;;;;4936874;29;20520;-73
2021/10/18 13:51:59;;;;;;;3.97;2.47;;;16.30;99.90;;;;;;4935539;29;20990;-72
2021/10/18 13:54:26;;;;;;;2.60;2.50;;;16.20;99.90;;;;;;4946291;29;20985;-65
2021/10/18 13:56:53;;;;;;;3.40;2.40;;;16.30;99.90;;;;;;4948810;29;20470;-68
2021/10/18 13:59:20;;;;;;;2.07;1.97;;;16.30;99.90;;;;;;4953287;29;20469;-68
2021/10/18 14:01:49;;;;;;;2.37;2.00;;;16.30;99.90;;;;;;4954917;29;20541;-68
2021/10/18 14:04:16;;;;;;;2.30;2.30;;;16.30;99.90;;;;;;4941159;29;20462;-73
2021/10/18 14:06:44;;;;;;;2.50;2.30;;;16.30;99.90;;;;;;4936381;29;20516;-72
2021/10/18 14:09:12;;;;;;;2.30;2.10;;;16.30;99.90;;;;;;4935928;29;21013;-72
2021/10/18 14:11:38;;;;;;;2.00;2.00;;;16.20;99.90;;;;;;4935133;29;20481;-73
2021/10/18 14:14:06;;;;;;;2.20;1.97;;;16.10;99.90;;;;;;4946876;29;20464;-72
2021/10/18 14:16:32;;;;;;;2.50;2.40;;;16.10;99.90;;;;;;4942359;29;20460;-71
2021/10/18 14:19:02;;;;;;;2.40;2.30;;;16.00;99.90;;;;;;4935855;29;20525;-72
2021/10/18 14:21:30;;;;;;;2.40;2.37;;;16.00;99.90;;;;;;4947037;28;20654;-72
2021/10/18 14:23:57;;;;;;;3.50;2.30;;;15.90;99.90;;;;;;4940751;29;20462;-72
2021/10/18 14:26:24;;;;;;;2.37;2.30;;;15.90;99.90;;;;;;4945793;29;20505;-72
2021/10/18 14:28:51;;;;;;;2.93;2.43;;;15.80;99.90;;;;;;4954058;29;20523;-71
2021/10/18 14:31:17;;;;;;;3.10;2.70;;;15.70;99.90;;;;;;4944696;28;21104;-72
2021/10/18 14:33:44;;;;;;;4.20;3.83;;;15.70;99.90;;;;;;4953172;29;20472;-71
2021/10/18 14:36:12;;;;;;;2.67;2.57;;;15.60;99.90;;;;;;4952257;29;20558;-71
2021/10/18 14:38:39;;;;;;;3.30;2.73;;;15.60;99.90;;;;;;4938585;29;20465;-72
2021/10/18 14:41:06;;;;;;;2.47;2.33;;;15.60;99.90;;;;;;4949141;29;20536;-72
2021/10/18 14:43:34;;;;;;;2.93;2.67;;;15.50;99.90;;;;;;4948562;28;20468;-73
2021/10/18 14:46:01;;;;;;;4.63;3.03;;;15.50;99.90;;;;;;4939324;29;20522;-71
2021/10/18 14:48:28;;;;;;;2.53;2.43;;;15.40;99.90;;;;;;4934955;29;20856;-72
2021/10/18 14:50:54;;;;;;;2.80;2.60;;;15.40;99.90;;;;;;4949133;29;20484;-72
2021/10/18 14:53:23;;;;;;;2.33;2.13;;;15.40;99.90;;;;;;4953614;28;20500;-72
2021/10/18 14:55:49;;;;;;;2.73;2.63;;;15.40;99.90;;;;;;4936309;29;20486;-72
2021/10/18 14:58:16;;;;;;;3.20;3.00;;;15.30;99.90;;;;;;4934871;29;20854;-72
2021/10/18 15:00:43;;;;;;;2.67;2.47;;;15.20;99.90;;;;;;4937483;29;20493;-72
2021/10/18 15:03:09;;;;;;;5.40;2.87;;;15.20;99.90;;;;;;4939321;29;20477;-72
2021/10/18 15:05:36;;;;;;;7.77;3.93;;;15.10;99.90;;;;;;4954495;29;20466;-72
2021/10/18 15:08:03;;;;;;;4.03;2.70;;;15.10;99.90;;;;;;4943035;29;20465;-71
2021/10/18 15:10:31;;;;;;;2.70;2.60;;;15.10;99.90;;;;;;4955649;29;20491;-72
2021/10/18 15:12:59;;;;;;;2.90;2.50;;;15.10;99.90;;;;;;4957548;29;20597;-73
2021/10/18 15:15:27;;;;;;;3.83;3.43;;;15.00;99.90;;;;;;4940101;28;20492;-72
2021/10/18 15:17:55;;;;;;;2.60;2.50;;;15.00;99.90;;;;;;4951067;29;20457;-72
2021/10/18 15:20:24;;;;;;;3.40;2.97;;;14.90;99.90;;;;;;4955973;29;20781;-72
2021/10/18 15:22:52;;;;;;;3.67;3.47;;;14.90;99.90;;;;;;4951979;29;20508;-69
2021/10/18 15:25:19;;;;;;;4.73;3.80;;;14.90;99.90;;;;;;4945873;29;20473;-69
2021/10/18 15:27:47;;;;;;;2.80;2.73;;;14.80;99.90;;;;;;4956996;29;20468;-69
2021/10/18 15:30:15;;;;;;;6.03;3.20;;;14.80;99.90;;;;;;4948743;29;20466;-69
2021/10/18 15:32:42;;;;;;;3.13;3.03;;;14.70;99.90;;;;;;4957074;29;20882;-69
2021/10/18 15:35:11;;;;;;;3.40;2.93;;;14.60;99.90;;;;;;4944139;29;20556;-69
2021/10/18 15:37:38;;;;;;;2.20;2.20;;;14.60;99.90;;;;;;4951090;29;20483;-69
2021/10/18 15:40:07;;;;;;;3.90;2.60;;;14.60;99.90;;;;;;4948688;29;20461;-71
2021/10/18 15:42:34;;;;;;;3.40;3.20;;;14.50;99.90;;;;;;4939285;29;20494;-69
2021/10/18 15:45:03;;;;;;;3.50;3.30;;;14.50;99.90;;;;;;4947605;29;20541;-68
2021/10/18 15:47:29;;;;;;;6.63;3.03;;;14.40;99.90;;;;;;4937778;29;21001;-68
2021/10/18 15:49:56;;;;;;;3.83;3.50;;;14.40;99.90;;;;;;4946590;29;20465;-69
2021/10/18 15:52:23;;;;;;;3.80;3.40;;;14.30;99.90;;;;;;4943115;29;20532;-68
2021/10/18 15:54:50;;;;;;;3.83;3.53;;;14.30;99.90;;;;;;4955678;28;20524;-68
2021/10/18 15:57:16;;;;;;;3.40;3.20;;;14.30;99.90;;;;;;4957140;29;20469;-69
2021/10/18 15:59:43;;;;;;;3.63;3.37;;;14.20;99.90;;;;;;4958995;28;20476;-70
2021/10/18 16:02:11;;;;;;;3.43;3.33;;;14.20;99.90;;;;;;4961809;29;20494;-70
2021/10/18 16:04:38;;;;;;;4.43;4.13;;;14.10;99.90;;;;;;4950606;29;20469;-71
2021/10/18 16:07:05;;;;;;;3.27;3.20;;;14.10;99.90;;;;;;4937824;29;20536;-69
2021/10/18 16:09:31;;;;;;;3.47;3.27;;;14.10;99.90;;;;;;4944897;28;20528;-69
2021/10/18 16:11:58;;;;;;;4.00;3.70;;;14.10;99.90;;;;;;4948594;29;21026;-69
2021/10/18 16:14:25;;;;;;;4.10;3.80;;;14.00;99.90;;;;;;4937923;29;20891;-71
2021/10/18 16:16:57;;;;;;;4.53;4.23;;;14.00;99.90;;;;;;4937580;29;20489;-71
2021/10/18 16:19:26;;;;;;;4.17;3.60;;;13.90;99.90;;;;;;4946397;29;20497;-71
2021/10/18 16:21:52;;;;;;;3.87;3.57;;;13.90;99.90;;;;;;4948367;28;20503;-71
2021/10/18 16:24:19;;;;;;;4.10;3.90;;;13.90;99.90;;;;;;4942251;29;20473;-71
2021/10/18 16:26:46;;;;;;;3.83;3.63;;;13.80;99.90;;;;;;4941595;29;20465;-69
2021/10/18 16:29:13;;;;;;;4.33;3.67;;;13.70;99.90;;;;;;4937451;29;20485;-70
2021/10/18 16:31:41;;;;;;;3.80;3.60;;;13.70;99.90;;;;;;4940362;29;20516;-70
2021/10/18 16:34:08;;;;;;;3.60;3.17;;;13.60;99.90;;;;;;4940259;29;20465;-70
2021/10/18 16:36:37;;;;;;;3.60;3.40;;;13.60;99.90;;;;;;4940298;29;20477;-69
2021/10/18 16:39:04;;;;;;;4.43;4.10;;;13.60;99.90;;;;;;4946589;29;20471;-70
2021/10/18 16:41:30;;;;;;;4.87;4.57;;;13.50;99.90;;;;;;4941530;28;20640;-69
2021/10/18 16:43:57;;;;;;;4.43;4.23;;;13.50;99.90;;;;;;4952891;29;20483;-70
2021/10/18 16:46:24;;;;;;;5.17;3.83;;;13.40;99.90;;;;;;4947052;29;20469;-70
2021/10/18 16:48:51;;;;;;;4.80;4.50;;;13.40;99.90;;;;;;4943167;28;21276;-70
2021/10/18 16:51:18;;;;;;;5.57;5.07;;;13.40;99.90;;;;;;4954580;29;20496;-71
2021/10/18 16:53:46;;;;;;;6.70;6.03;;;13.30;99.90;;;;;;4954226;28;20496;-71
2021/10/18 16:56:13;;;;;;;6.20;5.60;;;13.30;99.90;;;;;;4949216;29;20524;-72
2021/10/18 16:58:40;;;;;;;5.43;5.10;;;13.20;99.90;;;;;;4952079;29;20461;-71
2021/10/18 17:01:07;;;;;;;5.83;5.50;;;13.20;99.90;;;;;;4943406;29;20488;-70
2021/10/18 17:03:33;;;;;;;7.03;5.17;;;13.10;99.90;;;;;;4943959;29;20547;-71
2021/10/18 17:06:00;;;;;;;4.73;4.33;;;13.10;99.90;;;;;;4943852;29;20461;-72
2021/10/18 17:08:27;;;;;;;5.10;4.73;;;13.10;99.90;;;;;;4945988;29;20523;-71
2021/10/18 17:10:56;;;;;;;8.03;5.60;;;13.00;99.90;;;;;;4953279;29;20945;-71
2021/10/18 17:13:23;;;;;;;4.20;4.00;;;13.00;99.90;;;;;;4952963;28;20469;-72
2021/10/18 17:15:50;;;;;;;6.97;6.37;;;12.90;99.90;;;;;;4955292;29;20516;-72
2021/10/18 17:18:17;;;;;;;6.07;5.60;;;12.90;99.90;;;;;;4948625;29;20473;-72
2021/10/18 17:20:44;;;;;;;5.30;4.90;;;12.90;99.90;;;;;;4948453;29;20496;-71
2021/10/18 17:23:10;;;;;;;6.17;5.57;;;12.80;99.90;;;;;;4941471;29;20468;-72
2021/10/18 17:25:37;;;;;;;8.27;6.40;;;12.80;99.90;;;;;;4954287;28;20866;-71
2021/10/18 17:28:06;;;;;;;6.40;5.80;;;12.80;99.90;;;;;;4937583;29;20474;-72
2021/10/18 17:30:33;;;;;;;6.40;5.87;;;12.70;99.90;;;;;;4935809;28;21025;-71
2021/10/18 17:33:00;;;;;;;8.67;5.50;;;12.70;99.90;;;;;;4938207;29;20538;-71
2021/10/18 17:35:27;;;;;;;7.20;6.63;;;12.70;99.90;;;;;;4949600;29;20461;-69
2021/10/18 17:37:54;;;;;;;6.10;5.70;;;12.60;99.90;;;;;;4954693;29;20528;-70
2021/10/18 17:40:20;;;;;;;5.87;5.37;;;12.60;99.90;;;;;;4946076;29;20273;-69
2021/10/18 17:42:47;;;;;;;5.97;5.50;;;12.60;99.90;;;;;;4957409;29;20465;-69
2021/10/18 17:45:15;;;;;;;5.50;5.20;;;12.50;99.90;;;;;;4957695;29;20286;-70
2021/10/18 17:47:42;;;;;;;5.80;5.40;;;12.60;99.90;;;;;;4965378;29;20555;-70
2021/10/18 17:50:10;;;;;;;6.95;6.47;;;12.50;99.90;;;;;;4960721;29;20464;-70
2021/10/18 17:52:36;;;;;;;6.50;6.10;;;12.50;99.90;;;;;;4939615;29;20221;-70
2021/10/18 17:55:04;;;;;;;7.18;6.55;;;12.40;99.90;;;;;;4953408;29;20469;-70
2021/10/18 17:57:30;;;;;;;7.57;6.83;;;12.40;99.90;;;;;;4951201;28;20280;-70
2021/10/18 17:59:57;;;;;;;6.87;6.37;;;12.40;99.90;;;;;;4954946;29;20471;-70